createdAt,value
2023-01-13T00:00:16.523Z,0.90
2023-01-13T00:02:43.572Z,0.93
2023-01-13T00:05:10.701Z,0.80
2023-01-13T00:07:40.150Z,0.83
2023-01-13T00:10:11.265Z,0.70
2023-01-13T00:12:42.263Z,0.80
2023-01-13T00:15:10.952Z,1.03
2023-01-13T00:17:38.975Z,0.80
2023-01-13T00:20:06.981Z,0.90
2023-01-13T00:22:35.507Z,0.73
2023-01-13T00:25:04.370Z,0.70
2023-01-13T00:27:31.599Z,0.80
2023-01-13T00:29:59.203Z,0.87
2023-01-13T00:32:27.374Z,1.63
2023-01-13T00:34:54.644Z,0.80
2023-01-13T00:37:21.735Z,0.80
2023-01-13T00:39:48.652Z,0.90
2023-01-13T00:42:34.055Z,0.80
2023-01-13T00:45:00.984Z,0.70
2023-01-13T00:47:27.888Z,1.10
2023-01-13T00:49:55.825Z,1.03
2023-01-13T00:52:22.744Z,1.43
2023-01-13T00:54:49.980Z,0.90
2023-01-13T00:57:17.015Z,0.93
2023-01-13T00:59:44.026Z,0.80
2023-01-13T01:02:11.146Z,1.03
2023-01-13T01:04:38.375Z,1.00
2023-01-13T01:07:05.488Z,1.73
2023-01-13T01:09:34.585Z,1.37
2023-01-13T01:12:01.934Z,1.27
2023-01-13T01:14:28.848Z,1.00
2023-01-13T01:16:55.840Z,0.93
2023-01-13T01:19:23.561Z,0.93
2023-01-13T01:21:50.492Z,0.63
2023-01-13T01:24:17.527Z,0.90
2023-01-13T01:26:44.496Z,1.00
2023-01-13T01:29:15.570Z,1.10
2023-01-13T01:31:44.152Z,0.60
2023-01-13T01:34:11.123Z,0.60
2023-01-13T01:36:39.562Z,0.70
2023-01-13T01:39:06.894Z,0.77
2023-01-13T01:41:35.760Z,0.80
2023-01-13T01:44:08.586Z,0.70
2023-01-13T01:46:43.847Z,0.70
2023-01-13T01:49:20.391Z,0.80
2023-01-13T01:51:53.162Z,1.00
2023-01-13T01:54:27.643Z,0.80
2023-01-13T01:56:55.093Z,0.80
2023-01-13T01:59:22.160Z,0.90
2023-01-13T02:01:49.327Z,0.80
2023-01-13T02:04:26.313Z,0.70
2023-01-13T02:06:54.654Z,0.80
2023-01-13T02:09:21.634Z,0.90
2023-01-13T02:12:07.526Z,0.70
2023-01-13T02:14:35.807Z,0.83
2023-01-13T02:17:20.779Z,1.50
2023-01-13T02:20:09.601Z,1.27
2023-01-13T02:23:04.115Z,0.77
2023-01-13T02:26:00.991Z,0.70
2023-01-13T02:29:26.756Z,0.97
2023-01-13T02:32:03.424Z,0.97
2023-01-13T02:34:40.568Z,0.73
2023-01-13T02:37:18.615Z,0.70
2023-01-13T02:40:03.787Z,0.70
2023-01-13T02:42:57.663Z,1.00
2023-01-13T02:45:35.615Z,0.80
2023-01-13T02:48:06.897Z,0.80
2023-01-13T02:50:46.756Z,0.90
2023-01-13T02:53:23.116Z,0.70
2023-01-13T02:55:53.819Z,0.87
2023-01-13T02:58:27.821Z,0.90
2023-01-13T03:00:55.944Z,0.63
2023-01-13T03:03:23.392Z,0.60
2023-01-13T03:06:14.394Z,0.80
2023-01-13T03:09:12.284Z,0.80
2023-01-13T03:12:28.609Z,0.80
2023-01-13T03:15:07.857Z,0.63
2023-01-13T03:18:14.426Z,0.70
2023-01-13T03:20:58.943Z,0.80
2023-01-13T03:23:40.194Z,0.80
2023-01-13T03:26:23.178Z,0.67
2023-01-13T03:28:58.318Z,0.80
2023-01-13T03:31:32.278Z,0.70
2023-01-13T03:34:07.091Z,0.67
2023-01-13T03:36:39.111Z,0.70
2023-01-13T03:39:11.713Z,0.70
2023-01-13T03:41:47.019Z,0.90
2023-01-13T03:44:32.934Z,0.60
2023-01-13T03:47:05.020Z,0.90
2023-01-13T03:49:36.469Z,0.80
2023-01-13T03:52:09.802Z,0.83
2023-01-13T03:54:46.791Z,0.80
2023-01-13T03:57:18.702Z,0.80
2023-01-13T03:59:50.670Z,0.90
2023-01-13T04:02:45.440Z,0.70
2023-01-13T04:05:13.107Z,0.90
2023-01-13T04:08:01.664Z,0.83
2023-01-13T04:10:41.198Z,0.60
2023-01-13T04:13:16.657Z,1.00
2023-01-13T04:15:46.761Z,0.83
2023-01-13T04:18:18.908Z,0.80
2023-01-13T04:20:49.042Z,0.73
2023-01-13T04:23:17.635Z,0.80
2023-01-13T04:25:45.608Z,0.90
2023-01-13T04:28:13.442Z,0.73
2023-01-13T04:30:41.826Z,0.70
2023-01-13T04:33:09.028Z,0.90
2023-01-13T04:35:37.243Z,0.70
2023-01-13T04:38:17.248Z,0.60
2023-01-13T04:40:44.831Z,0.70
2023-01-13T04:43:12.100Z,0.80
2023-01-13T04:45:39.212Z,0.80
2023-01-13T04:48:06.661Z,0.73
2023-01-13T04:50:33.799Z,0.70
2023-01-13T04:53:05.941Z,0.90
2023-01-13T04:55:33.007Z,0.80
2023-01-13T04:58:09.144Z,0.90
2023-01-13T05:00:37.408Z,0.60
2023-01-13T05:03:04.542Z,0.70
2023-01-13T05:05:32.429Z,0.70
2023-01-13T05:07:59.348Z,0.70
2023-01-13T05:10:33.134Z,0.70
2023-01-13T05:13:18.425Z,0.77
2023-01-13T05:16:06.786Z,0.70
2023-01-13T05:18:34.012Z,0.60
2023-01-13T05:21:00.903Z,0.90
2023-01-13T05:23:46.787Z,0.60
2023-01-13T05:26:13.896Z,0.83
2023-01-13T05:28:40.856Z,0.70
2023-01-13T05:31:12.042Z,1.00
2023-01-13T05:33:38.956Z,0.83
2023-01-13T05:36:06.239Z,0.60
2023-01-13T05:38:33.151Z,0.60
2023-01-13T05:41:18.840Z,0.60
2023-01-13T05:43:45.973Z,0.80
2023-01-13T05:46:14.858Z,0.70
2023-01-13T05:48:43.643Z,0.70
2023-01-13T05:51:13.331Z,0.70
2023-01-13T05:53:43.477Z,0.60
2023-01-13T05:56:11.588Z,0.70
2023-01-13T05:58:38.726Z,0.73
2023-01-13T06:01:08.266Z,0.90
2023-01-13T06:03:36.031Z,0.63
2023-01-13T06:06:04.150Z,0.93
2023-01-13T06:08:32.298Z,0.63
2023-01-13T06:10:59.733Z,0.73
2023-01-13T06:13:26.821Z,0.70
2023-01-13T06:16:00.467Z,0.80
2023-01-13T06:18:28.449Z,0.70
2023-01-13T06:21:05.866Z,0.60
2023-01-13T06:23:38.605Z,0.90
2023-01-13T06:26:20.474Z,0.73
2023-01-13T06:28:47.568Z,0.80
2023-01-13T06:31:14.644Z,1.10
2023-01-13T06:33:48.979Z,0.80
2023-01-13T06:36:24.648Z,0.70
2023-01-13T06:38:57.543Z,1.00
2023-01-13T06:41:45.374Z,0.80
2023-01-13T06:44:21.045Z,0.80
2023-01-13T06:46:48.153Z,0.90
2023-01-13T06:49:15.200Z,0.60
2023-01-13T06:51:55.477Z,0.70
2023-01-13T06:54:30.543Z,1.20
2023-01-13T06:57:03.898Z,1.10
2023-01-13T06:59:30.968Z,0.60
2023-01-13T07:01:58.005Z,0.70
2023-01-13T07:04:25.174Z,1.00
2023-01-13T07:07:00.366Z,0.70
2023-01-13T07:09:27.288Z,0.70
2023-01-13T07:11:54.238Z,0.60
2023-01-13T07:14:39.554Z,0.70
2023-01-13T07:17:06.428Z,0.80
2023-01-13T07:19:33.321Z,0.60
2023-01-13T07:22:00.316Z,0.70
2023-01-13T07:24:32.164Z,0.50
2023-01-13T07:26:59.096Z,0.93
2023-01-13T07:29:25.964Z,0.80
2023-01-13T07:31:53.942Z,0.70
2023-01-13T07:34:20.966Z,0.70
2023-01-13T07:36:47.897Z,0.70
2023-01-13T07:39:16.015Z,0.70
2023-01-13T07:42:01.296Z,0.90
2023-01-13T07:44:28.342Z,1.00
2023-01-13T07:47:00.358Z,0.83
2023-01-13T07:49:27.325Z,0.90
2023-01-13T07:51:55.252Z,1.10
2023-01-13T07:54:45.051Z,1.23
2023-01-13T07:57:12.952Z,1.10
2023-01-13T07:59:40.910Z,0.80
2023-01-13T08:02:12.995Z,0.90
2023-01-13T08:04:42.187Z,1.00
2023-01-13T08:07:10.150Z,1.10
2023-01-13T08:09:37.047Z,1.33
2023-01-13T08:12:22.877Z,0.97
2023-01-13T08:14:50.927Z,1.13
2023-01-13T08:17:21.014Z,0.70
2023-01-13T08:19:48.006Z,0.80
2023-01-13T08:22:16.022Z,1.00
2023-01-13T08:24:42.932Z,0.70
2023-01-13T08:27:10.872Z,1.50
2023-01-13T08:29:39.092Z,2.17
2023-01-13T08:32:26.011Z,1.80
2023-01-13T08:34:53.954Z,1.43
2023-01-13T08:37:20.865Z,0.73
2023-01-13T08:39:50.933Z,1.00
2023-01-13T08:42:17.849Z,0.87
2023-01-13T08:44:50.954Z,1.30
2023-01-13T08:47:17.906Z,0.90
2023-01-13T08:49:47.939Z,1.20
2023-01-13T08:52:16.001Z,0.97
2023-01-13T08:54:42.907Z,1.03
2023-01-13T08:57:10.009Z,1.40
2023-01-13T08:59:37.249Z,1.20
2023-01-13T09:02:19.889Z,0.83
2023-01-13T09:04:48.238Z,1.20
2023-01-13T09:07:19.843Z,1.03
2023-01-13T09:09:46.750Z,0.83
2023-01-13T09:12:36.189Z,1.10
2023-01-13T09:15:06.163Z,0.90
2023-01-13T09:17:45.350Z,1.10
2023-01-13T09:20:24.507Z,1.10
2023-01-13T09:22:52.472Z,1.00
2023-01-13T09:25:21.426Z,0.90
2023-01-13T09:27:49.378Z,0.90
2023-01-13T09:30:25.652Z,1.20
2023-01-13T09:33:18.264Z,1.57
2023-01-13T09:35:45.626Z,1.00
2023-01-13T09:38:17.597Z,0.70
2023-01-13T09:40:54.742Z,0.73
2023-01-13T09:43:46.546Z,1.23
2023-01-13T09:46:47.234Z,1.17
2023-01-13T09:49:22.150Z,0.97
2023-01-13T09:52:12.577Z,1.30
2023-01-13T09:55:03.982Z,2.03
2023-01-13T09:57:36.927Z,1.40
2023-01-13T10:00:27.259Z,1.30
2023-01-13T10:03:20.764Z,1.10
2023-01-13T10:05:58.954Z,1.00
2023-01-13T10:08:35.501Z,1.17
2023-01-13T10:11:28.950Z,1.07
2023-01-13T10:14:01.879Z,1.57
2023-01-13T10:17:23.579Z,2.10
2023-01-13T10:20:18.932Z,1.00
2023-01-13T10:23:20.444Z,1.00
2023-01-13T10:26:37.951Z,2.10
2023-01-13T10:29:25.102Z,1.73
2023-01-13T10:32:10.427Z,2.40
2023-01-13T10:34:52.158Z,1.17
2023-01-13T10:37:26.417Z,1.70
2023-01-13T10:40:01.449Z,1.60
2023-01-13T10:42:33.472Z,1.60
2023-01-13T10:45:03.607Z,1.60
2023-01-13T10:47:34.322Z,1.50
2023-01-13T10:50:13.054Z,1.33
2023-01-13T10:53:02.800Z,1.40
2023-01-13T10:55:38.410Z,1.90
2023-01-13T10:58:21.669Z,1.40
2023-01-13T11:01:02.215Z,1.10
2023-01-13T11:03:42.816Z,1.20
2023-01-13T11:06:27.965Z,1.20
2023-01-13T11:08:58.490Z,1.33
2023-01-13T11:11:35.243Z,1.73
2023-01-13T11:14:33.139Z,1.57
2023-01-13T11:17:25.933Z,1.87
2023-01-13T11:20:13.054Z,1.50
2023-01-13T11:22:51.237Z,1.87
2023-01-13T11:26:07.064Z,1.70
2023-01-13T11:28:41.048Z,1.50
2023-01-13T11:31:30.628Z,1.40
2023-01-13T11:34:08.541Z,1.60
2023-01-13T11:36:42.191Z,1.30
2023-01-13T11:39:53.865Z,1.70
2023-01-13T11:42:38.381Z,1.90
2023-01-13T11:45:38.231Z,1.77
2023-01-13T11:48:05.760Z,1.80
2023-01-13T11:50:48.153Z,1.33
2023-01-13T11:53:23.972Z,1.83
2023-01-13T11:56:31.460Z,1.23
2023-01-13T11:59:29.829Z,2.03
2023-01-13T12:02:21.817Z,1.27
2023-01-13T12:05:11.456Z,2.20
2023-01-13T12:07:43.394Z,1.93
2023-01-13T12:10:55.384Z,1.80
2023-01-13T12:13:59.800Z,1.43
2023-01-13T12:16:33.588Z,1.60
2023-01-13T12:19:24.550Z,1.30
2023-01-13T12:22:25.610Z,1.20
2023-01-13T12:25:39.579Z,1.63
2023-01-13T12:28:53.955Z,1.20
2023-01-13T12:31:22.285Z,1.17
2023-01-13T12:33:54.935Z,1.53
2023-01-13T12:36:58.657Z,1.40
2023-01-13T12:40:25.504Z,1.43
2023-01-13T12:43:20.819Z,1.30
2023-01-13T12:45:47.786Z,1.87
2023-01-13T12:48:56.698Z,1.80
2023-01-13T12:51:36.737Z,1.07
2023-01-13T12:54:44.524Z,1.50
2023-01-13T12:57:22.311Z,1.60
2023-01-13T13:00:11.647Z,1.50
2023-01-13T13:02:43.888Z,1.47
2023-01-13T13:05:54.930Z,1.30
2023-01-13T13:08:41.928Z,1.27
2023-01-13T13:11:59.354Z,1.53
2023-01-13T13:14:48.290Z,1.70
2023-01-13T13:17:32.615Z,1.23
2023-01-13T13:20:01.863Z,1.53
2023-01-13T13:22:28.707Z,1.70
2023-01-13T13:24:55.805Z,1.50
2023-01-13T13:27:41.949Z,1.70
2023-01-13T13:30:28.415Z,1.97
2023-01-13T13:33:31.452Z,2.00
2023-01-13T13:36:08.294Z,1.50
2023-01-13T13:39:42.594Z,1.67
2023-01-13T13:42:46.066Z,1.47
2023-01-13T13:45:45.103Z,2.70
2023-01-13T13:48:34.464Z,1.80
2023-01-13T13:51:39.189Z,1.80
2023-01-13T13:54:20.045Z,1.33
2023-01-13T13:56:50.180Z,1.53
2023-01-13T13:59:30.870Z,1.67
2023-01-13T14:02:03.703Z,1.80
2023-01-13T14:04:36.874Z,1.40
2023-01-13T14:07:22.081Z,1.20
2023-01-13T14:09:56.473Z,2.47
2023-01-13T14:12:41.834Z,1.43
2023-01-13T14:15:56.632Z,1.70
2023-01-13T14:18:29.468Z,1.80
2023-01-13T14:21:17.728Z,2.70
2023-01-13T14:24:10.447Z,1.90
2023-01-13T14:26:39.303Z,2.87
2023-01-13T14:29:07.710Z,1.60
2023-01-13T14:31:35.223Z,1.80
2023-01-13T14:34:31.112Z,1.57
2023-01-13T14:36:52.013Z,2.33
2023-01-13T14:39:34.541Z,1.30
2023-01-13T14:42:04.031Z,1.70
2023-01-13T14:45:22.602Z,1.77
2023-01-13T14:48:00.643Z,2.17
2023-01-13T14:50:33.857Z,1.90
2023-01-13T14:53:01.694Z,2.10
2023-01-13T14:55:37.321Z,1.70
2023-01-13T14:58:25.468Z,1.60
2023-01-13T15:01:34.790Z,1.60
2023-01-13T15:04:25.555Z,2.10
2023-01-13T15:06:56.787Z,1.60
2023-01-13T15:09:27.917Z,1.70
2023-01-13T15:11:56.348Z,2.27
2023-01-13T15:14:34.821Z,1.60
2023-01-13T15:17:02.884Z,1.40
2023-01-13T15:19:29.789Z,1.57
2023-01-13T15:22:08.867Z,1.90
2023-01-13T15:24:35.877Z,1.33
2023-01-13T15:27:19.625Z,1.93
2023-01-13T15:29:55.805Z,1.97
2023-01-13T15:32:30.965Z,1.60
2023-01-13T15:34:57.808Z,1.63
2023-01-13T15:37:25.553Z,1.60
2023-01-13T15:39:52.505Z,1.37
2023-01-13T15:42:37.688Z,1.83
2023-01-13T15:45:23.571Z,1.87
2023-01-13T15:47:50.459Z,2.60
2023-01-13T15:50:22.922Z,1.60
2023-01-13T15:52:49.862Z,1.87
2023-01-13T15:55:16.830Z,1.87
2023-01-13T15:57:48.936Z,2.50
2023-01-13T16:00:29.389Z,2.17
2023-01-13T16:02:56.424Z,1.60
2023-01-13T16:05:23.460Z,1.67
2023-01-13T16:07:50.375Z,1.73
2023-01-13T16:10:25.899Z,2.10
2023-01-13T16:12:55.883Z,2.50
2023-01-13T16:15:24.847Z,1.97
2023-01-13T16:18:04.233Z,1.50
2023-01-13T16:20:35.331Z,1.47
2023-01-13T16:23:11.464Z,4.50
2023-01-13T16:25:43.710Z,2.50
2023-01-13T16:28:26.123Z,1.70
2023-01-13T16:30:59.270Z,2.20
2023-01-13T16:33:28.238Z,2.13
2023-01-13T16:36:10.408Z,2.30
2023-01-13T16:38:42.785Z,1.87
2023-01-13T16:41:10.755Z,1.50
2023-01-13T16:43:39.198Z,2.00
2023-01-13T16:46:24.261Z,2.33
2023-01-13T16:48:54.201Z,2.10
2023-01-13T16:51:31.374Z,2.27
2023-01-13T16:54:00.359Z,2.43
2023-01-13T16:56:36.023Z,2.10
2023-01-13T16:59:10.575Z,2.23
2023-01-13T17:01:43.103Z,1.80
2023-01-13T17:04:20.510Z,1.67
2023-01-13T17:07:08.211Z,1.50
2023-01-13T17:09:35.183Z,1.57
2023-01-13T17:12:02.178Z,1.50
2023-01-13T17:14:29.117Z,2.20
2023-01-13T17:17:31.953Z,2.40
2023-01-13T17:19:59.919Z,2.30
2023-01-13T17:22:26.891Z,2.67
2023-01-13T17:24:53.887Z,2.03
2023-01-13T17:27:23.127Z,2.33
2023-01-13T17:29:54.126Z,2.60
2023-01-13T17:32:22.968Z,2.60
2023-01-13T17:34:50.960Z,2.10
2023-01-13T17:37:18.112Z,1.90
2023-01-13T17:39:46.739Z,2.27
2023-01-13T17:42:17.023Z,2.80
2023-01-13T17:44:44.172Z,2.87
2023-01-13T17:47:17.421Z,2.30
2023-01-13T17:49:53.840Z,1.43
2023-01-13T17:52:20.713Z,2.07
2023-01-13T17:54:47.668Z,2.33
2023-01-13T17:57:28.061Z,2.10
2023-01-13T17:59:55.210Z,1.70
2023-01-13T18:02:22.310Z,2.10
2023-01-13T18:04:49.331Z,2.20
2023-01-13T18:07:16.302Z,1.80
2023-01-13T18:09:43.197Z,2.00
2023-01-13T18:12:10.589Z,1.77
2023-01-13T18:14:37.455Z,2.17
2023-01-13T18:17:05.536Z,1.83
2023-01-13T18:19:50.875Z,1.50
2023-01-13T18:22:36.281Z,2.40
2023-01-13T18:25:30.817Z,1.70
2023-01-13T18:28:00.827Z,1.57
2023-01-13T18:30:27.747Z,1.47
2023-01-13T18:32:55.429Z,1.70
2023-01-13T18:35:22.412Z,2.03
2023-01-13T18:37:52.029Z,1.50
2023-01-13T18:40:19.171Z,1.63
2023-01-13T18:42:52.184Z,1.30
2023-01-13T18:45:34.539Z,1.37
2023-01-13T18:48:04.232Z,1.43
2023-01-13T18:50:55.912Z,1.43
2023-01-13T18:53:22.856Z,1.57
2023-01-13T18:55:49.742Z,2.00
2023-01-13T18:58:16.899Z,1.50
2023-01-13T19:00:43.948Z,1.63
2023-01-13T19:03:13.134Z,1.37
2023-01-13T19:05:49.259Z,1.30
2023-01-13T19:08:16.136Z,1.60
2023-01-13T19:10:45.638Z,1.93
2023-01-13T19:13:16.046Z,1.83
2023-01-13T19:15:43.274Z,2.30
2023-01-13T19:18:26.829Z,1.57
2023-01-13T19:21:03.235Z,2.07
2023-01-13T19:23:39.984Z,1.73
2023-01-13T19:26:11.297Z,1.53
2023-01-13T19:28:42.365Z,2.17
2023-01-13T19:31:15.547Z,1.50
2023-01-13T19:33:55.678Z,1.40
2023-01-13T19:36:22.963Z,1.77
2023-01-13T19:38:49.986Z,1.33
2023-01-13T19:41:35.151Z,1.53
2023-01-13T19:44:39.788Z,2.27
2023-01-13T19:47:12.904Z,1.87
2023-01-13T19:49:39.805Z,1.80
2023-01-13T19:52:06.828Z,2.00
2023-01-13T19:54:35.762Z,1.67
2023-01-13T19:57:13.003Z,1.73
2023-01-13T20:00:07.366Z,2.63
2023-01-13T20:02:36.567Z,2.23
2023-01-13T20:05:09.266Z,2.13
2023-01-13T20:07:37.301Z,2.13
2023-01-13T20:10:04.840Z,2.43
2023-01-13T20:12:35.849Z,1.90
2023-01-13T20:15:02.826Z,2.20
2023-01-13T20:17:40.445Z,1.93
2023-01-13T20:20:10.642Z,1.90
2023-01-13T20:22:39.308Z,2.80
2023-01-13T20:25:07.810Z,1.97
2023-01-13T20:27:35.013Z,2.33
2023-01-13T20:30:02.012Z,1.73
2023-01-13T20:32:28.978Z,3.33
2023-01-13T20:34:56.959Z,2.67
2023-01-13T20:37:23.906Z,1.83
2023-01-13T20:39:51.084Z,3.03
2023-01-13T20:42:29.815Z,2.10
2023-01-13T20:45:01.326Z,1.90
2023-01-13T20:47:30.082Z,2.53
2023-01-13T20:49:57.615Z,1.77
2023-01-13T20:52:24.833Z,1.97
2023-01-13T20:54:52.849Z,1.70
2023-01-13T20:57:22.930Z,3.17
2023-01-13T20:59:50.875Z,2.23
2023-01-13T21:02:18.001Z,2.27
2023-01-13T21:04:44.995Z,2.17
2023-01-13T21:07:13.051Z,2.30
2023-01-13T21:09:40.133Z,2.00
2023-01-13T21:12:37.075Z,1.77
2023-01-13T21:15:21.770Z,1.93
2023-01-13T21:18:10.095Z,2.40
2023-01-13T21:20:38.726Z,1.97
2023-01-13T21:23:13.903Z,2.00
2023-01-13T21:25:43.887Z,1.80
2023-01-13T21:28:17.482Z,2.00
2023-01-13T21:30:46.813Z,2.37
2023-01-13T21:33:39.878Z,1.93
2023-01-13T21:36:14.071Z,1.50
2023-01-13T21:38:44.149Z,1.93
2023-01-13T21:41:38.392Z,1.70
2023-01-13T21:44:34.821Z,3.43
2023-01-13T21:47:01.805Z,2.37
2023-01-13T21:49:28.776Z,1.87
2023-01-13T21:51:58.902Z,2.00
2023-01-13T21:54:28.961Z,2.80
2023-01-13T21:56:55.814Z,2.13
2023-01-13T21:59:22.710Z,2.93
2023-01-13T22:02:19.320Z,1.80
2023-01-13T22:04:41.465Z,2.13
2023-01-13T22:07:13.452Z,2.10
2023-01-13T22:09:40.430Z,2.70
2023-01-13T22:12:07.366Z,2.00
2023-01-13T22:15:00.714Z,2.47
2023-01-13T22:17:34.300Z,2.57
2023-01-13T22:20:12.922Z,2.07
2023-01-13T22:22:42.953Z,2.53
2023-01-13T22:25:14.238Z,2.03
2023-01-13T22:28:05.974Z,2.03
2023-01-13T22:30:38.985Z,2.60
2023-01-13T22:33:05.875Z,2.37
2023-01-13T22:35:32.849Z,2.30
2023-01-13T22:37:59.761Z,2.20
2023-01-13T22:40:40.032Z,2.13
2023-01-13T22:43:09.044Z,1.53
2023-01-13T22:45:35.994Z,2.10
2023-01-13T22:48:02.913Z,1.83
2023-01-13T22:50:29.923Z,2.77
2023-01-13T22:52:58.085Z,2.00
2023-01-13T22:55:25.040Z,2.50
2023-01-13T22:58:06.255Z,2.90
2023-01-13T23:00:43.322Z,1.83
2023-01-13T23:03:12.387Z,2.40
2023-01-13T23:05:40.646Z,2.47
2023-01-13T23:08:09.401Z,1.93
2023-01-13T23:10:36.289Z,1.80
2023-01-13T23:13:03.221Z,2.13
2023-01-13T23:15:30.975Z,2.33
2023-01-13T23:17:57.849Z,2.57
2023-01-13T23:20:25.284Z,2.70
2023-01-13T23:22:52.236Z,2.13
2023-01-13T23:25:19.183Z,2.47
2023-01-13T23:27:47.075Z,1.80
2023-01-13T23:30:15.196Z,2.20
2023-01-13T23:33:00.689Z,1.97
2023-01-13T23:35:27.684Z,1.60
2023-01-13T23:38:04.249Z,2.37
2023-01-13T23:40:33.898Z,2.47
2023-01-13T23:43:01.163Z,2.00
2023-01-13T23:45:28.148Z,1.80
2023-01-13T23:47:55.848Z,2.40
2023-01-13T23:50:28.930Z,2.07
2023-01-13T23:53:07.392Z,2.13
2023-01-13T23:55:38.349Z,2.07
2023-01-13T23:58:30.775Z,2.50
